createdAt,value
2022-07-29T00:02:04.303Z,100355.13
2022-07-29T00:04:32.152Z,100356.41
2022-07-29T00:06:59.919Z,100356.88
2022-07-29T00:09:27.653Z,100353.59
2022-07-29T00:11:57.030Z,100342.75
2022-07-29T00:14:26.360Z,100349.25
2022-07-29T00:16:54.515Z,100345.13
2022-07-29T00:19:22.328Z,100340.19
2022-07-29T00:21:50.980Z,100335.00
2022-07-29T00:24:19.104Z,100340.69
2022-07-29T00:26:46.932Z,100342.56
2022-07-29T00:29:33.746Z,100333.53
2022-07-29T00:32:03.698Z,100329.16
2022-07-29T00:34:54.396Z,100321.75
2022-07-29T00:37:22.058Z,100318.91
2022-07-29T00:39:50.426Z,100318.91
2022-07-29T00:42:18.784Z,100320.22
2022-07-29T00:44:46.722Z,100319.41
2022-07-29T00:47:16.011Z,100318.22
2022-07-29T00:49:44.578Z,100312.56
2022-07-29T00:52:17.093Z,100312.22
2022-07-29T00:54:45.224Z,100310.69
2022-07-29T00:57:14.153Z,100303.53
2022-07-29T00:59:41.933Z,100301.75
2022-07-29T01:02:09.756Z,100297.28
2022-07-29T01:04:39.529Z,100293.84
2022-07-29T01:07:08.015Z,100297.16
2022-07-29T01:09:46.342Z,100303.38
2022-07-29T01:12:17.227Z,100300.00
2022-07-29T01:14:46.529Z,100297.28
2022-07-29T01:17:19.859Z,100295.50
2022-07-29T01:19:54.779Z,100285.75
2022-07-29T01:22:37.292Z,100286.34
2022-07-29T01:25:19.536Z,100283.88
2022-07-29T01:28:02.924Z,100291.28
2022-07-29T01:30:34.407Z,100288.13
2022-07-29T01:33:05.140Z,100284.13
2022-07-29T01:35:38.006Z,100278.22
2022-07-29T01:38:11.460Z,100283.63
2022-07-29T01:40:45.193Z,100279.28
2022-07-29T01:43:18.488Z,100268.94
2022-07-29T01:45:58.739Z,100261.88
2022-07-29T01:48:34.016Z,100264.69
2022-07-29T01:51:07.873Z,100262.34
2022-07-29T01:53:39.800Z,100263.28
2022-07-29T01:56:11.028Z,100259.41
2022-07-29T01:58:42.480Z,100261.63
2022-07-29T02:01:14.566Z,100263.16
2022-07-29T02:03:47.058Z,100264.59
2022-07-29T02:06:19.420Z,100266.56
2022-07-29T02:08:49.128Z,100269.88
2022-07-29T02:11:17.135Z,100263.41
2022-07-29T02:13:46.317Z,100258.81
2022-07-29T02:16:17.472Z,100264.59
2022-07-29T02:18:47.641Z,100260.56
2022-07-29T02:21:20.885Z,100262.81
2022-07-29T02:23:51.363Z,100261.16
2022-07-29T02:26:21.418Z,100263.88
2022-07-29T02:28:50.905Z,100270.34
2022-07-29T02:31:24.033Z,100267.03
2022-07-29T02:33:53.839Z,100263.75
2022-07-29T02:36:24.376Z,100265.88
2022-07-29T02:38:53.102Z,100264.81
2022-07-29T02:41:25.021Z,100264.22
2022-07-29T02:43:58.087Z,100269.41
2022-07-29T02:46:33.291Z,100269.75
2022-07-29T02:49:06.191Z,100267.03
2022-07-29T02:51:45.549Z,100261.63
2022-07-29T02:54:21.271Z,100259.53
2022-07-29T02:56:53.579Z,100256.59
2022-07-29T02:59:27.003Z,100256.81
2022-07-29T03:01:57.637Z,100262.84
2022-07-29T03:04:27.660Z,100257.28
2022-07-29T03:06:55.834Z,100256.69
2022-07-29T03:09:25.168Z,100257.19
2022-07-29T03:11:55.344Z,100248.09
2022-07-29T03:14:23.975Z,100256.44
2022-07-29T03:16:52.734Z,100251.53
2022-07-29T03:19:22.462Z,100258.66
2022-07-29T03:21:50.259Z,100254.31
2022-07-29T03:24:28.941Z,100254.31
2022-07-29T03:26:57.344Z,100253.03
2022-07-29T03:29:25.153Z,100253.47
2022-07-29T03:32:02.642Z,100257.03
2022-07-29T03:34:32.759Z,100265.13
2022-07-29T03:37:00.490Z,100254.09
2022-07-29T03:39:33.447Z,100259.63
2022-07-29T03:42:03.099Z,100256.31
2022-07-29T03:44:32.949Z,100257.97
2022-07-29T03:47:03.093Z,100258.44
2022-07-29T03:49:34.641Z,100257.03
2022-07-29T03:52:02.611Z,100266.03
2022-07-29T03:54:30.322Z,100265.56
2022-07-29T03:57:01.444Z,100255.34
2022-07-29T03:59:29.726Z,100259.94
2022-07-29T04:01:59.205Z,100260.03
2022-07-29T04:04:27.542Z,100262.75
2022-07-29T04:06:57.875Z,100254.41
2022-07-29T04:09:25.630Z,100265.66
2022-07-29T04:12:03.450Z,100269.09
2022-07-29T04:14:33.008Z,100273.66
2022-07-29T04:17:00.772Z,100271.19
2022-07-29T04:19:28.624Z,100267.88
2022-07-29T04:21:57.811Z,100271.41
2022-07-29T04:24:25.681Z,100277.03
2022-07-29T04:26:53.766Z,100273.50
2022-07-29T04:29:21.642Z,100275.16
2022-07-29T04:31:49.418Z,100279.13
2022-07-29T04:34:17.496Z,100275.03
2022-07-29T04:36:45.734Z,100269.88
2022-07-29T04:39:19.300Z,100268.66
2022-07-29T04:41:51.126Z,100278.66
2022-07-29T04:44:20.397Z,100273.47
2022-07-29T04:46:48.330Z,100279.34
2022-07-29T04:49:16.173Z,100275.59
2022-07-29T04:51:43.893Z,100273.00
2022-07-29T04:54:11.674Z,100281.50
2022-07-29T04:56:40.910Z,100272.56
2022-07-29T04:59:08.720Z,100279.47
2022-07-29T05:01:36.529Z,100274.91
2022-07-29T05:04:04.374Z,100276.53
2022-07-29T05:06:32.043Z,100287.13
2022-07-29T05:09:00.215Z,100279.63
2022-07-29T05:11:30.586Z,100284.81
2022-07-29T05:13:59.856Z,100284.53
2022-07-29T05:16:28.267Z,100282.44
2022-07-29T05:18:55.942Z,100281.66
2022-07-29T05:21:23.808Z,100288.50
2022-07-29T05:23:51.595Z,100290.94
2022-07-29T05:26:19.259Z,100286.94
2022-07-29T05:28:46.948Z,100288.84
2022-07-29T05:31:16.670Z,100289.22
2022-07-29T05:33:44.642Z,100289.00
2022-07-29T05:36:12.692Z,100292.28
2022-07-29T05:38:40.544Z,100298.88
2022-07-29T05:41:08.462Z,100294.63
2022-07-29T05:43:36.212Z,100296.88
2022-07-29T05:46:04.136Z,100293.97
2022-07-29T05:48:33.511Z,100303.50
2022-07-29T05:51:01.623Z,100298.44
2022-07-29T05:53:29.691Z,100305.13
2022-07-29T05:55:57.503Z,100304.19
2022-07-29T05:58:25.196Z,100311.81
2022-07-29T06:00:53.779Z,100303.25
2022-07-29T06:03:21.546Z,100303.03
2022-07-29T06:05:50.590Z,100309.38
2022-07-29T06:08:18.704Z,100319.13
2022-07-29T06:10:46.503Z,100311.38
2022-07-29T06:13:16.755Z,100322.53
2022-07-29T06:15:45.162Z,100324.56
2022-07-29T06:18:14.385Z,100320.91
2022-07-29T06:20:42.054Z,100316.47
2022-07-29T06:23:11.228Z,100317.88
2022-07-29T06:25:40.352Z,100322.56
2022-07-29T06:28:08.135Z,100319.63
2022-07-29T06:30:35.938Z,100318.75
2022-07-29T06:33:03.988Z,100316.41
2022-07-29T06:35:41.413Z,100314.53
2022-07-29T06:38:31.762Z,100323.59
2022-07-29T06:41:03.653Z,100323.47
2022-07-29T06:43:34.857Z,100325.59
2022-07-29T06:46:04.375Z,100321.25
2022-07-29T06:48:32.329Z,100335.38
2022-07-29T06:51:00.915Z,100318.91
2022-07-29T06:53:30.449Z,100326.56
2022-07-29T06:55:59.090Z,100325.22
2022-07-29T07:00:54.866Z,100325.00
2022-07-29T07:03:22.721Z,100338.78
2022-07-29T07:05:50.977Z,100348.78
2022-07-29T07:08:18.986Z,100350.69
2022-07-29T07:10:48.702Z,100355.59
2022-07-29T07:13:18.185Z,100356.09
2022-07-29T07:15:46.444Z,100362.91
2022-07-29T07:18:14.168Z,100362.22
2022-07-29T07:20:41.955Z,100358.53
2022-07-29T07:23:09.743Z,100361.84
2022-07-29T07:25:37.525Z,100358.06
2022-07-29T07:28:07.960Z,100363.81
2022-07-29T07:30:35.714Z,100364.75
2022-07-29T07:33:03.549Z,100362.75
2022-07-29T07:35:31.309Z,100366.06
2022-07-29T07:37:59.247Z,100363.69
2022-07-29T07:40:27.264Z,100366.38
2022-07-29T07:42:55.249Z,100355.47
2022-07-29T07:45:24.624Z,100349.44
2022-07-29T07:47:52.320Z,100362.41
2022-07-29T07:50:20.034Z,100357.47
2022-07-29T07:52:49.709Z,100355.56
2022-07-29T07:55:18.214Z,100354.47
2022-07-29T07:57:46.447Z,100359.31
2022-07-29T08:00:16.705Z,100351.50
2022-07-29T08:02:46.411Z,100350.38
2022-07-29T08:05:17.828Z,100355.91
2022-07-29T08:07:46.720Z,100356.16
2022-07-29T08:10:15.069Z,100355.91
2022-07-29T08:12:43.832Z,100344.69
2022-07-29T08:15:11.733Z,100353.31
2022-07-29T08:17:39.463Z,100349.34
2022-07-29T08:20:09.175Z,100352.78
2022-07-29T08:22:36.846Z,100360.84
2022-07-29T08:25:04.961Z,100361.06
2022-07-29T08:27:43.363Z,100366.25
2022-07-29T08:30:12.130Z,100360.34
2022-07-29T08:32:56.141Z,100361.66
2022-07-29T08:35:26.511Z,100360.44
2022-07-29T08:37:55.088Z,100361.91
2022-07-29T08:40:32.099Z,100365.13
2022-07-29T08:43:00.766Z,100366.59
2022-07-29T08:45:31.486Z,100359.44
2022-07-29T08:47:59.298Z,100367.09
2022-07-29T08:50:28.572Z,100369.56
2022-07-29T08:52:59.917Z,100370.09
2022-07-29T08:55:28.995Z,100372.69
2022-07-29T08:57:57.637Z,100371.59
2022-07-29T09:00:27.282Z,100377.38
2022-07-29T09:03:00.249Z,100365.94
2022-07-29T09:05:30.343Z,100368.66
2022-07-29T09:07:58.308Z,100367.00
2022-07-29T09:10:26.382Z,100369.22
2022-07-29T09:12:54.338Z,100365.22
2022-07-29T09:15:22.132Z,100373.25
2022-07-29T09:17:51.416Z,100366.72
2022-07-29T09:20:21.262Z,100366.34
2022-07-29T09:22:51.866Z,100369.50
2022-07-29T09:25:34.519Z,100358.84
2022-07-29T09:28:08.875Z,100362.47
2022-07-29T09:30:36.965Z,100358.50
2022-07-29T09:33:05.856Z,100360.03
2022-07-29T09:35:33.693Z,100358.75
2022-07-29T09:38:12.589Z,100358.28
2022-07-29T09:40:40.693Z,100358.69
2022-07-29T09:43:13.140Z,100358.00
2022-07-29T09:45:41.349Z,100357.81
2022-07-29T09:48:16.991Z,100351.03
2022-07-29T09:50:47.807Z,100356.25
2022-07-29T09:53:33.357Z,100352.22
2022-07-29T09:56:01.293Z,100355.00
2022-07-29T09:58:29.098Z,100346.00
2022-07-29T10:00:59.282Z,100357.16
2022-07-29T10:03:27.558Z,100353.03
2022-07-29T10:06:10.006Z,100349.28
2022-07-29T10:08:39.429Z,100348.03
2022-07-29T10:11:14.151Z,100344.22
2022-07-29T10:13:43.259Z,100344.72
2022-07-29T10:16:11.149Z,100351.72
2022-07-29T10:18:40.912Z,100353.00
2022-07-29T10:21:09.150Z,100355.06
2022-07-29T10:23:46.503Z,100353.41
2022-07-29T10:26:18.498Z,100347.88
2022-07-29T10:28:46.435Z,100343.03
2022-07-29T10:31:23.665Z,100342.63
2022-07-29T10:34:06.555Z,100328.00
2022-07-29T10:36:55.428Z,100333.22
2022-07-29T10:39:44.536Z,100332.16
2022-07-29T10:42:33.423Z,100332.78
2022-07-29T10:45:04.395Z,100332.78
2022-07-29T10:47:32.739Z,100333.91
2022-07-29T10:50:05.156Z,100333.41
2022-07-29T10:52:55.572Z,100337.88
2022-07-29T10:55:34.432Z,100335.16
2022-07-29T10:58:19.436Z,100331.16
2022-07-29T11:00:49.449Z,100328.50
2022-07-29T11:03:50.286Z,100326.91
2022-07-29T11:06:26.301Z,100327.50
2022-07-29T11:09:17.402Z,100321.53
2022-07-29T11:12:00.391Z,100315.25
2022-07-29T11:15:01.422Z,100311.13
2022-07-29T11:17:47.078Z,100304.00
2022-07-29T11:20:34.331Z,100307.28
2022-07-29T11:23:20.070Z,100305.94
2022-07-29T11:26:18.676Z,100309.47
2022-07-29T11:28:53.513Z,100310.28
2022-07-29T11:31:36.483Z,100307.44
2022-07-29T11:34:22.606Z,100310.44
2022-07-29T11:37:28.096Z,100307.19
2022-07-29T11:40:14.503Z,100314.81
2022-07-29T11:42:52.192Z,100316.53
2022-07-29T11:48:29.466Z,100310.81
2022-07-29T11:51:01.234Z,100306.16
2022-07-29T11:53:32.815Z,100310.53
2022-07-29T11:56:02.780Z,100306.16
2022-07-29T11:58:31.834Z,100306.19
2022-07-29T12:01:04.494Z,100301.28
2022-07-29T12:03:36.693Z,100299.63
2022-07-29T12:06:15.155Z,100295.72
2022-07-29T12:07:02.021Z,100309.69
2022-07-29T12:08:45.021Z,100283.78
2022-07-29T12:11:21.846Z,100278.88
2022-07-29T12:13:50.432Z,100279.69
2022-07-29T12:16:25.777Z,100281.28
2022-07-29T12:18:59.711Z,100284.81
2022-07-29T12:21:28.744Z,100279.59
2022-07-29T12:24:03.360Z,100284.53
2022-07-29T12:26:35.025Z,100278.25
2022-07-29T12:29:04.242Z,100282.09
2022-07-29T12:31:43.359Z,100278.34
2022-07-29T12:34:14.941Z,100273.69
2022-07-29T12:36:43.780Z,100277.78
2022-07-29T12:39:13.405Z,100272.91
2022-07-29T12:41:41.189Z,100281.63
2022-07-29T12:44:09.094Z,100280.28
2022-07-29T12:46:36.874Z,100270.47
2022-07-29T12:49:05.361Z,100280.84
2022-07-29T12:51:37.378Z,100271.28
2022-07-29T12:54:07.909Z,100260.13
2022-07-29T12:56:44.903Z,100263.66
2022-07-29T12:59:15.123Z,100255.22
2022-07-29T13:01:42.919Z,100250.88
2022-07-29T13:04:10.810Z,100253.06
2022-07-29T13:06:42.639Z,100250.06
2022-07-29T13:09:16.626Z,100238.59
2022-07-29T13:11:48.653Z,100240.78
2022-07-29T13:14:32.689Z,100247.34
2022-07-29T13:17:06.725Z,100246.50
2022-07-29T13:19:41.166Z,100246.22
2022-07-29T13:22:10.533Z,100248.41
2022-07-29T13:24:48.265Z,100248.41
2022-07-29T13:27:16.606Z,100242.69
2022-07-29T13:29:44.356Z,100253.31
2022-07-29T13:32:14.060Z,100252.22
2022-07-29T13:34:42.157Z,100245.97
2022-07-29T13:37:11.242Z,100243.78
2022-07-29T13:39:39.262Z,100245.69
2022-07-29T13:42:10.954Z,100253.59
2022-07-29T13:44:39.050Z,100248.13
2022-07-29T13:47:07.219Z,100243.78
2022-07-29T13:49:34.935Z,100244.34
2022-07-29T13:52:02.657Z,100242.44
2022-07-29T13:54:31.752Z,100246.53
2022-07-29T13:56:59.473Z,100236.94
2022-07-29T13:59:27.213Z,100235.31
2022-07-29T14:01:55.154Z,100232.84
2022-07-29T14:04:24.226Z,100236.38
2022-07-29T14:06:52.256Z,100236.38
2022-07-29T14:09:20.002Z,100232.59
2022-07-29T14:11:51.085Z,100235.56
2022-07-29T14:14:18.855Z,100238.03
2022-07-29T14:16:47.800Z,100238.59
2022-07-29T14:19:19.768Z,100243.22
2022-07-29T14:21:47.446Z,100240.22
2022-07-29T14:24:17.850Z,100239.66
2022-07-29T14:26:50.950Z,100238.31
2022-07-29T14:29:18.752Z,100229.88
2022-07-29T14:31:46.493Z,100235.31
2022-07-29T14:34:16.544Z,100227.09
2022-07-29T14:36:44.637Z,100237.50
2022-07-29T14:39:12.854Z,100233.13
2022-07-29T14:41:40.681Z,100234.78
2022-07-29T14:44:09.775Z,100232.31
2022-07-29T14:46:37.526Z,100231.22
2022-07-29T14:49:05.384Z,100228.75
2022-07-29T14:51:34.958Z,100228.22
2022-07-29T14:54:02.859Z,100229.31
2022-07-29T14:56:46.771Z,100231.47
2022-07-29T14:59:16.159Z,100233.13
2022-07-29T15:01:44.122Z,100226.59
2022-07-29T15:04:11.836Z,100230.13
2022-07-29T15:06:39.782Z,100229.31
2022-07-29T15:09:07.722Z,100237.50
2022-07-29T15:11:37.015Z,100227.41
2022-07-29T15:14:06.669Z,100226.59
2022-07-29T15:16:37.957Z,100229.59
2022-07-29T15:19:06.011Z,100232.56
2022-07-29T15:21:33.865Z,100230.41
2022-07-29T15:24:01.622Z,100220.59
2022-07-29T15:26:29.386Z,100227.94
2022-07-29T15:28:57.514Z,100232.59
2022-07-29T15:31:25.364Z,100229.31
2022-07-29T15:33:59.442Z,100229.28
2022-07-29T15:36:50.722Z,100235.03
2022-07-29T15:39:16.709Z,100233.09
2022-07-29T15:41:44.429Z,100232.28
2022-07-29T15:44:12.111Z,100232.56
2022-07-29T15:46:57.513Z,100230.91
2022-07-29T15:49:48.725Z,100227.38
2022-07-29T15:52:18.907Z,100227.09
2022-07-29T15:54:47.160Z,100232.28
2022-07-29T15:57:15.152Z,100224.94
2022-07-29T15:59:42.833Z,100217.84
2022-07-29T16:02:31.690Z,100214.56
2022-07-29T16:05:00.931Z,100217.31
2022-07-29T16:07:31.418Z,100215.13
2022-07-29T16:10:00.513Z,100212.94
2022-07-29T16:12:28.330Z,100204.47
2022-07-29T16:14:59.011Z,100209.13
2022-07-29T16:17:27.646Z,100211.28
2022-07-29T16:19:55.486Z,100212.13
2022-07-29T16:22:24.549Z,100217.31
2022-07-29T16:24:52.468Z,100221.38
2022-07-29T16:27:35.537Z,100217.56
2022-07-29T16:30:20.763Z,100209.13
2022-07-29T16:32:48.513Z,100215.41
2022-07-29T16:35:16.348Z,100222.22
2022-07-29T16:37:45.426Z,100219.75
2022-07-29T16:40:13.658Z,100213.22
2022-07-29T16:42:46.935Z,100217.31
2022-07-29T16:45:15.415Z,100222.75
2022-07-29T16:47:43.126Z,100216.75
2022-07-29T16:50:11.111Z,100221.13
2022-07-29T16:52:39.999Z,100225.75
2022-07-29T16:55:09.693Z,100222.72
2022-07-29T16:57:37.818Z,100226.28
2022-07-29T17:00:07.683Z,100221.91
2022-07-29T17:02:35.356Z,100222.19
2022-07-29T17:05:03.076Z,100228.47
2022-07-29T17:07:30.934Z,100236.31
2022-07-29T17:10:03.614Z,100230.03
2022-07-29T17:12:33.249Z,100240.13
2022-07-29T17:15:01.366Z,100244.78
2022-07-29T17:17:39.555Z,100248.88
2022-07-29T17:20:17.590Z,100248.00
2022-07-29T17:22:45.522Z,100245.03
2022-07-29T17:25:20.645Z,100255.88
2022-07-29T17:27:51.416Z,100249.88
2022-07-29T17:30:19.725Z,100257.22
2022-07-29T17:32:47.416Z,100264.03
2022-07-29T17:35:32.661Z,100270.56
2022-07-29T17:38:00.389Z,100271.38
2022-07-29T17:40:28.080Z,100272.75
2022-07-29T17:42:57.404Z,100285.25
2022-07-29T17:45:25.111Z,100285.00
2022-07-29T17:47:52.791Z,100291.22
2022-07-29T17:50:20.544Z,100286.59
2022-07-29T17:52:48.243Z,100283.88
2022-07-29T17:55:15.883Z,100292.03
2022-07-29T17:57:43.548Z,100296.41
2022-07-29T18:00:13.718Z,100311.63
2022-07-29T18:02:41.487Z,100314.03
2022-07-29T18:05:09.589Z,100321.09
2022-07-29T18:07:37.365Z,100316.75
2022-07-29T18:10:05.920Z,100319.47
2022-07-29T18:12:33.673Z,100318.34
2022-07-29T18:15:01.544Z,100320.44
2022-07-29T18:17:34.611Z,100332.41
2022-07-29T18:20:18.335Z,100328.84
2022-07-29T18:22:46.003Z,100343.78
2022-07-29T18:25:13.768Z,100344.53
2022-07-29T18:27:41.515Z,100348.84
2022-07-29T18:30:10.277Z,100349.63
2022-07-29T18:32:39.358Z,100352.09
2022-07-29T18:35:07.718Z,100356.41
2022-07-29T18:38:01.866Z,100367.00
2022-07-29T18:40:25.742Z,100360.41
2022-07-29T18:42:53.440Z,100368.56
2022-07-29T18:45:21.230Z,100364.69
2022-07-29T18:47:50.430Z,100357.03
2022-07-29T18:50:19.318Z,100360.50
2022-07-29T18:52:47.372Z,100371.06
2022-07-29T18:55:15.126Z,100380.84
2022-07-29T18:57:55.014Z,100377.22
2022-07-29T19:00:24.934Z,100378.03
2022-07-29T19:02:54.402Z,100369.28
2022-07-29T19:05:23.005Z,100379.59
2022-07-29T19:07:50.784Z,100381.78
2022-07-29T19:10:18.568Z,100381.78
2022-07-29T19:12:46.333Z,100390.94
2022-07-29T19:15:20.334Z,100387.91
2022-07-29T19:17:48.703Z,100393.03
2022-07-29T19:20:18.008Z,100399.78
2022-07-29T19:22:45.994Z,100402.78
2022-07-29T19:25:13.794Z,100409.53
2022-07-29T19:27:43.021Z,100410.38
2022-07-29T19:30:11.406Z,100417.94
2022-07-29T19:32:39.162Z,100428.00
2022-07-29T19:35:25.595Z,100423.88
2022-07-29T19:37:55.922Z,100424.41
2022-07-29T19:40:23.667Z,100437.44
2022-07-29T19:42:52.791Z,100433.31
2022-07-29T19:45:21.138Z,100446.06
2022-07-29T19:47:49.364Z,100455.88
2022-07-29T19:50:18.041Z,100464.56
2022-07-29T19:52:47.097Z,100467.41
2022-07-29T19:55:16.871Z,100464.06
2022-07-29T19:57:47.432Z,100488.19
2022-07-29T20:00:16.163Z,100499.31
2022-07-29T20:02:44.334Z,100491.66
2022-07-29T20:05:12.766Z,100502.19
2022-07-29T20:07:41.053Z,100498.91
2022-07-29T20:10:10.523Z,100507.78
2022-07-29T20:12:42.521Z,100494.06
2022-07-29T20:15:14.761Z,100493.97
2022-07-29T20:17:44.467Z,100501.56
2022-07-29T20:20:12.488Z,100505.56
2022-07-29T20:22:40.281Z,100502.06
2022-07-29T20:25:09.710Z,100497.13
2022-07-29T20:27:40.379Z,100500.06
2022-07-29T20:30:08.913Z,100495.13
2022-07-29T20:32:37.258Z,100497.78
2022-07-29T20:35:05.442Z,100508.78
2022-07-29T20:37:33.307Z,100502.34
2022-07-29T20:40:19.327Z,100513.66
2022-07-29T20:42:48.623Z,100512.84
2022-07-29T20:45:16.349Z,100515.81
2022-07-29T20:47:44.289Z,100506.03
2022-07-29T20:50:12.005Z,100511.69
2022-07-29T20:52:41.072Z,100515.97
2022-07-29T20:55:09.919Z,100511.03
2022-07-29T20:57:39.361Z,100511.69
2022-07-29T21:00:10.405Z,100516.38
2022-07-29T21:02:38.303Z,100510.88
2022-07-29T21:05:07.180Z,100513.00
2022-07-29T21:07:34.955Z,100516.13
2022-07-29T21:10:02.688Z,100520.97
2022-07-29T21:12:30.702Z,100522.03
2022-07-29T21:14:58.738Z,100516.28
2022-07-29T21:17:27.841Z,100521.34
2022-07-29T21:19:55.505Z,100524.53
2022-07-29T21:22:23.326Z,100518.56
2022-07-29T21:24:51.037Z,100526.09
2022-07-29T21:27:38.420Z,100518.19
2022-07-29T21:30:07.565Z,100517.38
2022-07-29T21:32:36.719Z,100514.91
2022-07-29T21:35:11.310Z,100516.22
2022-07-29T21:37:50.188Z,100524.84
2022-07-29T21:40:17.864Z,100528.63
2022-07-29T21:42:45.620Z,100536.75
2022-07-29T21:45:14.328Z,100539.47
2022-07-29T21:47:43.355Z,100536.44
2022-07-29T21:50:11.207Z,100539.63
2022-07-29T21:52:38.964Z,100545.28
2022-07-29T21:55:10.591Z,100550.69
2022-07-29T21:57:39.338Z,100553.84
2022-07-29T22:00:11.351Z,100555.31
2022-07-29T22:02:39.008Z,100562.38
2022-07-29T22:05:08.778Z,100558.25
2022-07-29T22:07:54.259Z,100562.50
2022-07-29T22:10:23.481Z,100567.91
2022-07-29T22:12:53.007Z,100564.13
2022-07-29T22:15:20.764Z,100566.59
2022-07-29T22:17:48.981Z,100570.13
2022-07-29T22:20:18.176Z,100567.41
2022-07-29T22:22:46.664Z,100566.50
2022-07-29T22:25:14.382Z,100562.97
2022-07-29T22:27:42.182Z,100566.72
2022-07-29T22:30:10.861Z,100567.22
2022-07-29T22:32:38.729Z,100567.22
2022-07-29T22:35:07.547Z,100566.03
2022-07-29T22:37:36.627Z,100571.47
2022-07-29T22:40:06.494Z,100574.66
2022-07-29T22:42:34.627Z,100574.31
2022-07-29T22:45:02.567Z,100580.47
2022-07-29T22:47:46.595Z,100574.31
2022-07-29T22:50:16.847Z,100583.63
2022-07-29T22:52:46.218Z,100580.94
2022-07-29T22:55:14.193Z,100584.69
2022-07-29T22:57:42.069Z,100588.47
2022-07-29T23:00:11.674Z,100584.09
2022-07-29T23:02:40.339Z,100584.09
2022-07-29T23:05:10.176Z,100585.41
2022-07-29T23:07:38.130Z,100592.13
2022-07-29T23:10:08.256Z,100591.53
2022-07-29T23:12:36.113Z,100594.25
2022-07-29T23:15:04.423Z,100596.81
2022-07-29T23:17:36.045Z,100592.97
2022-07-29T23:20:06.344Z,100595.06
2022-07-29T23:22:34.117Z,100600.84
2022-07-29T23:25:01.873Z,100597.69
2022-07-29T23:27:31.083Z,100592.72
2022-07-29T23:29:58.829Z,100592.72
2022-07-29T23:32:26.641Z,100592.84
2022-07-29T23:34:54.370Z,100593.91
2022-07-29T23:37:22.023Z,100583.94
2022-07-29T23:39:49.694Z,100577.47
2022-07-29T23:42:19.227Z,100580.53
2022-07-29T23:44:48.266Z,100583.00
2022-07-29T23:47:15.952Z,100574.38
2022-07-29T23:49:43.676Z,100576.63
2022-07-29T23:52:11.451Z,100580.84
2022-07-29T23:54:39.119Z,100589.06
2022-07-29T23:57:06.797Z,100589.41
2022-07-29T23:59:34.501Z,100583.66
